Holden, Maine
Current Conditions -  °F | °C
As of 4:53 PM on Tuesday 21 Oct 2014 (Local Time) from KBGR Reporting Station
Light Rain Light Rain  
Wind Chill: 50°   Ceiling: 3500
Heat Index: 50°   Visibility: 6mi
Dew Point: 45°   Wind: 9mph
Humidity: 83%   Direction: 50°NE
Pressure: 30.1"   Gusts: NA
Location:  44.75°N, 68.68°W
Report Text: KBGR 212053Z 05008KT 6SM -RA FEW025 BKN035 OVC065 10/07 A3010 RMK AO2 RAB12 SLP191 P0003 60004 T01000072 53006
Loading
Personal Weather Stations






























Interactive Weather Map
Tropical Storm Tracking
New forecast layout! Learn more

10-Day Weather Forecast

Advertisements
Track Severe Weather on mobile